PWSweather.com
Personal Weather Stations
Station Observations
BANEKERE1
AntwerpenBE

AntwerpenBE

Lat: 51.2809101, Lon: 4.4202713

Elevation: 40

Station Type:

http://www.akker.be

Latest ConditionsUpdated 10:40:11 AM GMT+01:01 Tuesday, Feb 28, 2017
Currently Today's Max Today's Min Today's Average
Temperature 42.8°F6.0°C 43.2°F6.2°C 40.9°F4.9°C 42.1°F5.6°C
Dew Point 36.1°F2.3°C 36.8°F2.7°C 34.2°F1.2°C 35.3°F1.8°C
Winds 8.1 mph SSW13.0 kmh SSW 18.4 mph S29.6 kmh S - 10.7 mph 17.2 kmh
Wind Gusts 12.7 mph20.4 kmh 26.5 mph42.6 kmh - -
Humidity 77% 83% 74% 77%
Pressure 29.25 in990.5 mb 29.25 in990.5 mb 29.19 in988.5 mb -
Precipitation - 0.01 in0.3 mm - -
Hour Temp Dew Point Humidity Winds Wind Gusts Pressure Precip Precip Rate Daily Precip Total
10:40 AM 42.8°F6.0°C 36.1°F2.3°C 77% 8.1 mph SSW13.0 kmh SSW 12.7 mph20.4 kmh 29.25 in990.5 mb - 0.00 in0.0 mm 0.01 in0.3 mm
10:30 AM 42.7°F5.9°C 36.0°F2.2°C 77% 10.4 mph SSW16.7 kmh SSW 15.0 mph24.1 kmh 29.25 in990.5 mb - 0.00 in0.0 mm 0.01 in0.3 mm
10:20 AM 42.5°F5.8°C 35.8°F2.1°C 77% 9.2 mph S14.8 kmh S 17.3 mph27.8 kmh 29.25 in990.5 mb - 0.00 in0.0 mm 0.01 in0.3 mm
10:10 AM 42.4°F5.8°C 35.7°F2.1°C 77% 11.5 mph SW18.5 kmh SW 13.8 mph22.2 kmh 29.25 in990.5 mb - 0.00 in0.0 mm 0.01 in0.3 mm
10:00 AM 42.4°F5.8°C 35.4°F1.9°C 76% 9.2 mph SSW14.8 kmh SSW 12.7 mph20.4 kmh 29.25 in990.5 mb - 0.00 in0.0 mm 0.01 in0.3 mm
09:50 AM 42.2°F5.7°C 35.2°F1.8°C 76% 9.2 mph SSW14.8 kmh SSW 13.8 mph22.2 kmh 29.25 in990.5 mb - 0.00 in0.0 mm 0.01 in0.3 mm
09:40 AM 42.1°F5.6°C 35.1°F1.7°C 76% 8.1 mph SW13.0 kmh SW 11.5 mph18.5 kmh 29.25 in990.5 mb - 0.00 in0.0 mm 0.01 in0.3 mm
09:30 AM 42.1°F5.6°C 35.1°F1.7°C 76% 8.1 mph SSW13.0 kmh SSW 12.7 mph20.4 kmh 29.25 in990.5 mb - 0.00 in0.0 mm 0.01 in0.3 mm
09:20 AM 42.1°F5.6°C 35.0°F1.7°C 76% 12.7 mph SSW20.4 kmh SSW 18.4 mph29.6 kmh 29.24 in990.2 mb - 0.00 in0.0 mm 0.01 in0.3 mm
09:10 AM 42.0°F5.6°C 35.0°F1.7°C 76% 9.2 mph SSW14.8 kmh SSW 12.7 mph20.4 kmh 29.24 in990.2 mb - 0.00 in0.0 mm 0.01 in0.3 mm
09:00 AM 42.0°F5.6°C 35.0°F1.7°C 76% 8.1 mph S13.0 kmh S 13.8 mph22.2 kmh 29.23 in989.8 mb - 0.00 in0.0 mm 0.01 in0.3 mm
08:50 AM 41.9°F5.5°C 34.9°F1.6°C 76% 12.7 mph SSW20.4 kmh SSW 24.2 mph38.9 kmh 29.23 in989.8 mb - 0.00 in0.0 mm 0.01 in0.3 mm
08:40 AM 42.0°F5.6°C 35.0°F1.7°C 76% 10.4 mph SSW16.7 kmh SSW 17.3 mph27.8 kmh 29.23 in989.8 mb - 0.00 in0.0 mm 0.01 in0.3 mm
08:30 AM 42.0°F5.6°C 35.0°F1.7°C 76% 9.2 mph SW14.8 kmh SW 13.8 mph22.2 kmh 29.23 in989.8 mb - 0.00 in0.0 mm 0.01 in0.3 mm
08:20 AM 42.0°F5.6°C 35.0°F1.7°C 76% 11.5 mph SSW18.5 kmh SSW 16.1 mph25.9 kmh 29.23 in989.8 mb - 0.00 in0.0 mm 0.01 in0.3 mm
08:10 AM 42.0°F5.6°C 35.0°F1.7°C 76% 12.7 mph SSW20.4 kmh SSW 17.3 mph27.8 kmh 29.22 in989.5 mb - 0.00 in0.0 mm 0.01 in0.3 mm
08:00 AM 42.0°F5.6°C 35.0°F1.7°C 76% 13.8 mph SW22.2 kmh SW 20.7 mph33.3 kmh 29.22 in989.5 mb - 0.00 in0.0 mm 0.01 in0.3 mm
07:50 AM 42.0°F5.6°C 35.0°F1.7°C 76% 9.2 mph SSW14.8 kmh SSW 15.0 mph24.1 kmh 29.22 in989.5 mb - 0.00 in0.0 mm 0.01 in0.3 mm
07:40 AM 42.0°F5.6°C 34.6°F1.4°C 75% 17.3 mph S27.8 kmh S 25.3 mph40.7 kmh 29.21 in989.2 mb - 0.00 in0.0 mm 0.01 in0.3 mm
07:30 AM 42.0°F5.6°C 34.6°F1.4°C 75% 10.4 mph S16.7 kmh S 12.7 mph20.4 kmh 29.20 in988.8 mb - 0.00 in0.0 mm 0.01 in0.3 mm
07:20 AM 41.9°F5.5°C 34.6°F1.4°C 75% 12.7 mph SSW20.4 kmh SSW 16.1 mph25.9 kmh 29.20 in988.8 mb - 0.00 in0.0 mm 0.01 in0.3 mm
07:10 AM 41.9°F5.5°C 34.2°F1.2°C 74% 10.4 mph SSW16.7 kmh SSW 16.1 mph25.9 kmh 29.20 in988.8 mb - 0.00 in0.0 mm 0.01 in0.3 mm
07:00 AM 42.0°F5.6°C 34.3°F1.3°C 74% 15.0 mph S24.1 kmh S 21.9 mph35.2 kmh 29.19 in988.5 mb - 0.00 in0.0 mm 0.01 in0.3 mm
06:50 AM 42.0°F5.6°C 34.3°F1.3°C 74% 17.3 mph S27.8 kmh S 18.4 mph29.6 kmh 29.19 in988.5 mb - 0.00 in0.0 mm 0.01 in0.3 mm
06:40 AM 42.0°F5.6°C 34.7°F1.5°C 75% 11.5 mph S18.5 kmh S 20.7 mph33.3 kmh 29.19 in988.5 mb - 0.00 in0.0 mm 0.01 in0.3 mm
06:30 AM 42.1°F5.6°C 34.7°F1.5°C 75% 17.3 mph S27.8 kmh S 21.9 mph35.2 kmh 29.19 in988.5 mb - 0.00 in0.0 mm 0.01 in0.3 mm
06:20 AM 42.0°F5.6°C 34.6°F1.4°C 75% 13.8 mph S22.2 kmh S 18.4 mph29.6 kmh 29.20 in988.8 mb - 0.00 in0.0 mm 0.01 in0.3 mm
06:10 AM 41.9°F5.5°C 34.6°F1.4°C 75% 15.0 mph S24.1 kmh S 25.3 mph40.7 kmh 29.20 in988.8 mb - 0.00 in0.0 mm 0.01 in0.3 mm
06:00 AM 42.0°F5.6°C 34.9°F1.6°C 76% 11.5 mph SSW18.5 kmh SSW 23.0 mph37.0 kmh 29.20 in988.8 mb - 0.00 in0.0 mm 0.01 in0.3 mm
05:50 AM 41.9°F5.5°C 34.6°F1.4°C 75% 13.8 mph S22.2 kmh S 21.9 mph35.2 kmh 29.20 in988.8 mb - 0.00 in0.0 mm 0.01 in0.3 mm
05:40 AM 42.0°F5.6°C 34.6°F1.4°C 75% 15.0 mph S24.1 kmh S 19.6 mph31.5 kmh 29.20 in988.8 mb - 0.00 in0.0 mm 0.01 in0.3 mm
05:30 AM 42.2°F5.7°C 34.8°F1.6°C 75% 12.7 mph SSW20.4 kmh SSW 15.0 mph24.1 kmh 29.20 in988.8 mb - 0.00 in0.0 mm 0.01 in0.3 mm
05:20 AM 42.2°F5.7°C 34.8°F1.6°C 75% 9.2 mph S14.8 kmh S 16.1 mph25.9 kmh 29.20 in988.8 mb - 0.00 in0.0 mm 0.01 in0.3 mm
05:10 AM 42.4°F5.8°C 35.0°F1.7°C 75% 13.8 mph SSW22.2 kmh SSW 25.3 mph40.7 kmh 29.20 in988.8 mb - 0.00 in0.0 mm 0.01 in0.3 mm
05:00 AM 42.4°F5.8°C 34.7°F1.5°C 74% 11.5 mph SW18.5 kmh SW 15.0 mph24.1 kmh 29.20 in988.8 mb - 0.00 in0.0 mm 0.01 in0.3 mm
04:50 AM 42.5°F5.8°C 34.8°F1.6°C 74% 18.4 mph S29.6 kmh S 21.9 mph35.2 kmh 29.20 in988.8 mb - 0.00 in0.0 mm 0.01 in0.3 mm
04:40 AM 42.5°F5.8°C 34.8°F1.6°C 74% 11.5 mph S18.5 kmh S 13.8 mph22.2 kmh 29.20 in988.8 mb - 0.00 in0.0 mm 0.01 in0.3 mm
04:30 AM 42.5°F5.8°C 35.1°F1.7°C 75% 13.8 mph SSW22.2 kmh SSW 18.4 mph29.6 kmh 29.20 in988.8 mb - 0.00 in0.0 mm 0.01 in0.3 mm
04:20 AM 42.4°F5.8°C 35.0°F1.7°C 75% 11.5 mph SSW18.5 kmh SSW 19.6 mph31.5 kmh 29.20 in988.8 mb - 0.00 in0.0 mm 0.01 in0.3 mm
04:10 AM 42.4°F5.8°C 35.0°F1.7°C 75% 10.4 mph S16.7 kmh S 11.5 mph18.5 kmh 29.20 in988.8 mb - 0.00 in0.0 mm 0.01 in0.3 mm
04:00 AM 42.4°F5.8°C 35.1°F1.7°C 75% 12.7 mph S20.4 kmh S 21.9 mph35.2 kmh 29.20 in988.8 mb - 0.00 in0.0 mm 0.01 in0.3 mm
03:50 AM 42.5°F5.8°C 35.1°F1.7°C 75% 9.2 mph SSW14.8 kmh SSW 16.1 mph25.9 kmh 29.20 in988.8 mb - 0.00 in0.0 mm 0.01 in0.3 mm
03:40 AM 42.5°F5.8°C 35.1°F1.7°C 75% 13.8 mph S22.2 kmh S 15.0 mph24.1 kmh 29.21 in989.2 mb - 0.00 in0.0 mm 0.01 in0.3 mm
03:30 AM 42.1°F5.6°C 35.4°F1.9°C 77% 8.1 mph S13.0 kmh S 24.2 mph38.9 kmh 29.21 in989.2 mb - 0.00 in0.0 mm 0.01 in0.3 mm
03:20 AM 41.5°F5.3°C 35.8°F2.1°C 80% 4.6 mph SSW7.4 kmh SSW 9.2 mph14.8 kmh 29.21 in989.2 mb - 0.00 in0.0 mm 0.01 in0.3 mm
03:10 AM 41.4°F5.2°C 35.7°F2.1°C 80% 3.5 mph SW5.6 kmh SW 5.8 mph9.3 kmh 29.21 in989.2 mb - 0.00 in0.0 mm 0.01 in0.3 mm
03:00 AM 41.6°F5.3°C 35.8°F2.1°C 80% 4.6 mph SW7.4 kmh SW 10.4 mph16.7 kmh 29.22 in989.5 mb - 0.00 in0.0 mm 0.01 in0.3 mm
02:50 AM 42.4°F5.8°C 36.0°F2.2°C 78% 2.3 mph SW3.7 kmh SW 6.9 mph11.1 kmh 29.22 in989.5 mb - 0.00 in0.0 mm 0.01 in0.3 mm
02:40 AM 42.8°F6.0°C 35.8°F2.1°C 76% 9.2 mph SW14.8 kmh SW 12.7 mph20.4 kmh 29.22 in989.5 mb - 0.00 in0.0 mm 0.01 in0.3 mm
02:30 AM 43.0°F6.1°C 35.6°F2.0°C 75% 9.2 mph SSW14.8 kmh SSW 8.1 mph13.0 kmh 29.21 in989.2 mb - 0.00 in0.0 mm 0.01 in0.3 mm
02:20 AM 43.1°F6.2°C 35.7°F2.1°C 75% 13.8 mph SW22.2 kmh SW 16.1 mph25.9 kmh 29.21 in989.2 mb - 0.00 in0.0 mm 0.01 in0.3 mm
02:10 AM 43.1°F6.2°C 35.7°F2.1°C 75% 12.7 mph SSW20.4 kmh SSW 21.9 mph35.2 kmh 29.21 in989.2 mb - 0.00 in0.0 mm 0.01 in0.3 mm
02:00 AM 43.2°F6.2°C 35.8°F2.1°C 75% 13.8 mph SSW22.2 kmh SSW 26.5 mph42.6 kmh 29.22 in989.5 mb - 0.00 in0.0 mm 0.01 in0.3 mm
01:50 AM 43.1°F6.2°C 35.7°F2.1°C 75% 15.0 mph S24.1 kmh S 17.3 mph27.8 kmh 29.22 in989.5 mb - 0.00 in0.0 mm 0.01 in0.3 mm
01:40 AM 42.8°F6.0°C 35.8°F2.1°C 76% 11.5 mph S18.5 kmh S 16.1 mph25.9 kmh 29.22 in989.5 mb - 0.00 in0.0 mm 0.01 in0.3 mm
01:30 AM 42.4°F5.8°C 35.7°F2.1°C 77% 12.7 mph SSW20.4 kmh SSW 18.4 mph29.6 kmh 29.21 in989.2 mb - 0.00 in0.0 mm 0.01 in0.3 mm
01:20 AM 41.9°F5.5°C 35.8°F2.1°C 79% 11.5 mph S18.5 kmh S 15.0 mph24.1 kmh 29.22 in989.5 mb - 0.00 in0.0 mm 0.01 in0.3 mm
01:10 AM 41.4°F5.2°C 36.3°F2.4°C 82% 9.2 mph SSW14.8 kmh SSW 11.5 mph18.5 kmh 29.22 in989.5 mb - 0.00 in0.0 mm 0.01 in0.3 mm
01:00 AM 41.1°F5.1°C 36.3°F2.4°C 83% 8.1 mph SSW13.0 kmh SSW 15.0 mph24.1 kmh 29.22 in989.5 mb - 0.00 in0.0 mm 0.01 in0.3 mm
12:50 AM 41.0°F5.0°C 36.2°F2.3°C 83% 6.9 mph SSW11.1 kmh SSW 11.5 mph18.5 kmh 29.22 in989.5 mb - 0.00 in0.0 mm 0.01 in0.3 mm
12:40 AM 40.9°F4.9°C 36.1°F2.3°C 83% 6.9 mph SSW11.1 kmh SSW 8.1 mph13.0 kmh 29.22 in989.5 mb - 0.00 in0.0 mm 0.01 in0.3 mm
12:30 AM 41.0°F5.0°C 35.9°F2.2°C 82% 6.9 mph S11.1 kmh S 9.2 mph14.8 kmh 29.22 in989.5 mb - 0.00 in0.0 mm 0.01 in0.3 mm
12:20 AM 41.1°F5.1°C 36.0°F2.2°C 82% 5.8 mph SSW9.3 kmh SSW 12.7 mph20.4 kmh 29.23 in989.8 mb - 0.01 in0.3 mm 0.01 in0.3 mm
12:10 AM 41.6°F5.3°C 36.2°F2.3°C 81% 3.5 mph SSW5.6 kmh SSW 9.2 mph14.8 kmh 29.23 in989.8 mb - 0.00 in0.0 mm 0.00 in0.0 mm
12:00 AM 42.5°F5.8°C 36.8°F2.7°C 80% 4.6 mph SW7.4 kmh SW 10.4 mph16.7 kmh 29.23 in989.8 mb - 0.00 in0.0 mm 0.00 in0.0 mm